Al-Kharj, Saudi Arabia

11:40 PM AST on November 20, 2014 (GMT +0300)
Prince Sultan Air Base | Change Station
CLOSE
Current Station
Airport
Location: Al Kharj Air Base,
Elevation: 1640 ft
Nearby Weather Stations

Elev 1640 ft 24.07 °N, 47.58 °E | Updated 40 minutes ago

Clear
Clear
68 °F
Feels Like 68 °F
N
4
Wind Variable Wind from Variable

Today
High -- | Low -- °F
--% Chance of Precip.
Yesterday
High -- | Low -- °F
Precip. -- in
6:09 AM 5:03 PM
Waning Crescent, 3% visible
Pressure 30.18 in
Visibility -9999.0 miles
Clouds
Dew Point 41 °F
Humidity 37%
Rainfall 0.00 in
Snow Depth Not available.
UV Not available.
Pollen Not available.
Air Quality Not available.
Flu Activity Not available.
METAR OEKJ 202000Z VRB03KT CAVOK 20/05 Q1022

More Conditions Fewer Conditions

Pressure 30.18 in
Visibility -9999.0 miles
Clouds
Dew Point 41 °F
Humidity 37%
Rainfall 0.00 in
Snow Depth Not available.
UV Not available.
Pollen Not available.
Air Quality Not available.
Flu Activity Not available.
METAR OEKJ 202000Z VRB03KT CAVOK 20/05 Q1022

More Conditions Fewer Conditions

10-Day Weather Forecast

Almanac

Astronomy

Nov. 20, 2014 Rise Set
Actual Time
Civil Twilight
Nautical Twilight
Astronomical Twilight
Moon
Length of Visible Light
Length of Day
Tomorrow will be .
, % of the Moon is Illuminated

Today's Extremes

Country Highs Country Lows

Community

WunderPhotos

Upload Photos

1,772,513 photos uploaded!

WunderBlogs® & News

Nearby

Air Quality

  Air Quality AQ Index Pollutant
Not available.

Snow Depth

Station Depth Elevation

Earthquake Activity

City Distance Mag. Time & Date
Minimum magnitude displayed is 2.5.

Coastal Water Temperatures

Place Temperature

Nearby Weather Stations